sensor_id;sensor_type;location;lat;lon;timestamp;temperature;humidity
19952;DHT22;10137;49.406;19.484;2023-03-31T00:01:04;7.20;99.90
19952;DHT22;10137;49.406;19.484;2023-03-31T00:03:38;7.20;99.90
19952;DHT22;10137;49.406;19.484;2023-03-31T00:06:10;7.20;99.90
19952;DHT22;10137;49.406;19.484;2023-03-31T00:08:45;7.20;99.90
19952;DHT22;10137;49.406;19.484;2023-03-31T00:11:17;7.30;99.90
19952;DHT22;10137;49.406;19.484;2023-03-31T00:13:47;7.30;99.90
19952;DHT22;10137;49.406;19.484;2023-03-31T00:16:15;7.20;99.90
19952;DHT22;10137;49.406;19.484;2023-03-31T00:18:44;7.30;99.90
19952;DHT22;10137;49.406;19.484;2023-03-31T00:21:18;7.30;99.90
19952;DHT22;10137;49.406;19.484;2023-03-31T00:24:06;7.30;99.90
19952;DHT22;10137;49.406;19.484;2023-03-31T00:26:39;7.20;99.90
19952;DHT22;10137;49.406;19.484;2023-03-31T00:29:08;7.30;99.90
19952;DHT22;10137;49.406;19.484;2023-03-31T00:31:36;7.30;99.90
19952;DHT22;10137;49.406;19.484;2023-03-31T00:34:06;7.20;99.90
19952;DHT22;10137;49.406;19.484;2023-03-31T00:36:35;7.10;99.90
19952;DHT22;10137;49.406;19.484;2023-03-31T00:39:17;7.10;99.90
19952;DHT22;10137;49.406;19.484;2023-03-31T00:41:49;7.10;99.90
19952;DHT22;10137;49.406;19.484;2023-03-31T00:44:19;7.10;99.90
19952;DHT22;10137;49.406;19.484;2023-03-31T00:46:51;7.00;99.90
19952;DHT22;10137;49.406;19.484;2023-03-31T00:49:26;7.00;99.90
19952;DHT22;10137;49.406;19.484;2023-03-31T00:52:00;7.10;99.90
19952;DHT22;10137;49.406;19.484;2023-03-31T00:54:35;7.10;99.90
19952;DHT22;10137;49.406;19.484;2023-03-31T00:57:05;7.10;99.90
19952;DHT22;10137;49.406;19.484;2023-03-31T00:59:37;7.10;99.90
19952;DHT22;10137;49.406;19.484;2023-03-31T01:02:07;7.10;99.90
19952;DHT22;10137;49.406;19.484;2023-03-31T01:04:38;7.20;99.90
19952;DHT22;10137;49.406;19.484;2023-03-31T01:07:14;7.20;99.90
19952;DHT22;10137;49.406;19.484;2023-03-31T01:09:46;7.20;99.90
19952;DHT22;10137;49.406;19.484;2023-03-31T01:12:16;7.20;99.90
19952;DHT22;10137;49.406;19.484;2023-03-31T01:14:45;7.20;99.90
19952;DHT22;10137;49.406;19.484;2023-03-31T01:17:13;7.20;99.90
19952;DHT22;10137;49.406;19.484;2023-03-31T01:19:56;7.20;99.90
19952;DHT22;10137;49.406;19.484;2023-03-31T01:22:57;7.20;99.90
19952;DHT22;10137;49.406;19.484;2023-03-31T01:25:52;7.20;99.90
19952;DHT22;10137;49.406;19.484;2023-03-31T01:28:28;7.20;99.90
19952;DHT22;10137;49.406;19.484;2023-03-31T01:31:27;7.20;99.90
19952;DHT22;10137;49.406;19.484;2023-03-31T01:41:00;7.20;99.90
19952;DHT22;10137;49.406;19.484;2023-03-31T01:43:41;7.20;99.90
19952;DHT22;10137;49.406;19.484;2023-03-31T01:46:18;7.30;99.90
19952;DHT22;10137;49.406;19.484;2023-03-31T01:48:53;7.30;99.90
19952;DHT22;10137;49.406;19.484;2023-03-31T01:51:27;7.30;99.90
19952;DHT22;10137;49.406;19.484;2023-03-31T01:54:05;7.30;99.90
19952;DHT22;10137;49.406;19.484;2023-03-31T01:56:41;7.30;99.90
19952;DHT22;10137;49.406;19.484;2023-03-31T01:59:15;7.30;99.90
19952;DHT22;10137;49.406;19.484;2023-03-31T02:01:48;7.40;99.90
19952;DHT22;10137;49.406;19.484;2023-03-31T02:04:22;7.40;99.90
19952;DHT22;10137;49.406;19.484;2023-03-31T02:06:54;7.40;99.90
19952;DHT22;10137;49.406;19.484;2023-03-31T02:09:26;7.40;99.90
19952;DHT22;10137;49.406;19.484;2023-03-31T02:11:58;7.40;99.90
19952;DHT22;10137;49.406;19.484;2023-03-31T02:14:29;7.40;99.90
19952;DHT22;10137;49.406;19.484;2023-03-31T02:17:00;7.40;99.90
19952;DHT22;10137;49.406;19.484;2023-03-31T02:19:32;7.40;99.90
19952;DHT22;10137;49.406;19.484;2023-03-31T02:22:04;7.40;99.90
19952;DHT22;10137;49.406;19.484;2023-03-31T02:24:35;7.40;99.90
19952;DHT22;10137;49.406;19.484;2023-03-31T02:27:08;7.30;99.90
19952;DHT22;10137;49.406;19.484;2023-03-31T02:29:39;7.30;99.90
19952;DHT22;10137;49.406;19.484;2023-03-31T02:32:12;7.20;99.90
19952;DHT22;10137;49.406;19.484;2023-03-31T02:34:43;7.30;99.90
19952;DHT22;10137;49.406;19.484;2023-03-31T02:37:12;7.20;99.90
19952;DHT22;10137;49.406;19.484;2023-03-31T02:39:44;7.10;99.90
19952;DHT22;10137;49.406;19.484;2023-03-31T02:42:16;7.10;99.90
19952;DHT22;10137;49.406;19.484;2023-03-31T02:44:45;7.10;99.90
19952;DHT22;10137;49.406;19.484;2023-03-31T02:47:15;7.00;99.90
19952;DHT22;10137;49.406;19.484;2023-03-31T02:49:49;6.90;99.90
19952;DHT22;10137;49.406;19.484;2023-03-31T02:52:36;7.00;99.90
19952;DHT22;10137;49.406;19.484;2023-03-31T02:55:48;7.00;99.90
19952;DHT22;10137;49.406;19.484;2023-03-31T03:01:40;6.90;99.90
19952;DHT22;10137;49.406;19.484;2023-03-31T03:04:23;7.00;99.90
19952;DHT22;10137;49.406;19.484;2023-03-31T03:07:01;7.00;99.90
19952;DHT22;10137;49.406;19.484;2023-03-31T03:09:38;7.00;99.90
19952;DHT22;10137;49.406;19.484;2023-03-31T03:12:14;7.10;99.90
19952;DHT22;10137;49.406;19.484;2023-03-31T03:14:48;7.10;99.90
19952;DHT22;10137;49.406;19.484;2023-03-31T03:17:22;7.10;99.90
19952;DHT22;10137;49.406;19.484;2023-03-31T03:19:53;7.10;99.90
19952;DHT22;10137;49.406;19.484;2023-03-31T03:22:28;7.00;99.90
19952;DHT22;10137;49.406;19.484;2023-03-31T03:24:57;7.00;99.90
19952;DHT22;10137;49.406;19.484;2023-03-31T03:27:25;7.10;99.90
19952;DHT22;10137;49.406;19.484;2023-03-31T03:29:54;7.10;99.90
19952;DHT22;10137;49.406;19.484;2023-03-31T03:32:23;7.10;99.90
19952;DHT22;10137;49.406;19.484;2023-03-31T03:34:52;7.10;99.90
19952;DHT22;10137;49.406;19.484;2023-03-31T03:37:20;7.00;99.90
19952;DHT22;10137;49.406;19.484;2023-03-31T03:39:48;7.00;99.90
19952;DHT22;10137;49.406;19.484;2023-03-31T03:42:16;6.90;99.90
19952;DHT22;10137;49.406;19.484;2023-03-31T03:44:44;7.00;99.90
19952;DHT22;10137;49.406;19.484;2023-03-31T03:47:15;7.00;99.90
19952;DHT22;10137;49.406;19.484;2023-03-31T03:49:42;7.00;99.90
19952;DHT22;10137;49.406;19.484;2023-03-31T03:52:10;7.00;99.90
19952;DHT22;10137;49.406;19.484;2023-03-31T03:54:38;7.00;99.90
19952;DHT22;10137;49.406;19.484;2023-03-31T03:57:07;7.00;99.90
19952;DHT22;10137;49.406;19.484;2023-03-31T03:59:35;7.00;99.90
19952;DHT22;10137;49.406;19.484;2023-03-31T04:02:03;7.00;99.90
19952;DHT22;10137;49.406;19.484;2023-03-31T04:04:33;6.90;99.90
19952;DHT22;10137;49.406;19.484;2023-03-31T04:07:01;6.90;99.90
19952;DHT22;10137;49.406;19.484;2023-03-31T04:09:30;6.90;99.90
19952;DHT22;10137;49.406;19.484;2023-03-31T04:11:58;6.80;99.90
19952;DHT22;10137;49.406;19.484;2023-03-31T04:14:27;6.80;99.90
19952;DHT22;10137;49.406;19.484;2023-03-31T04:16:57;6.80;99.90
19952;DHT22;10137;49.406;19.484;2023-03-31T04:19:25;6.80;99.90
19952;DHT22;10137;49.406;19.484;2023-03-31T04:21:54;6.80;99.90
19952;DHT22;10137;49.406;19.484;2023-03-31T04:24:28;6.80;99.90
19952;DHT22;10137;49.406;19.484;2023-03-31T04:27:00;6.80;99.90
19952;DHT22;10137;49.406;19.484;2023-03-31T04:29:28;6.90;99.90
19952;DHT22;10137;49.406;19.484;2023-03-31T04:31:59;6.70;99.90
19952;DHT22;10137;49.406;19.484;2023-03-31T04:34:28;6.70;99.90
19952;DHT22;10137;49.406;19.484;2023-03-31T04:37:03;6.60;99.90
19952;DHT22;10137;49.406;19.484;2023-03-31T04:39:36;6.60;99.90
19952;DHT22;10137;49.406;19.484;2023-03-31T04:42:05;6.60;99.90
19952;DHT22;10137;49.406;19.484;2023-03-31T04:44:33;6.60;99.90
19952;DHT22;10137;49.406;19.484;2023-03-31T04:47:01;6.70;99.90
19952;DHT22;10137;49.406;19.484;2023-03-31T04:49:32;6.70;99.90
19952;DHT22;10137;49.406;19.484;2023-03-31T04:52:06;6.80;99.90
19952;DHT22;10137;49.406;19.484;2023-03-31T04:54:34;6.80;99.90
19952;DHT22;10137;49.406;19.484;2023-03-31T04:57:02;6.80;99.90
19952;DHT22;10137;49.406;19.484;2023-03-31T04:59:30;6.80;99.90
19952;DHT22;10137;49.406;19.484;2023-03-31T05:01:58;6.90;99.90
19952;DHT22;10137;49.406;19.484;2023-03-31T05:04:27;7.00;99.90
19952;DHT22;10137;49.406;19.484;2023-03-31T05:06:55;7.00;99.90
19952;DHT22;10137;49.406;19.484;2023-03-31T05:09:24;7.00;99.90
19952;DHT22;10137;49.406;19.484;2023-03-31T05:11:53;7.00;99.90
19952;DHT22;10137;49.406;19.484;2023-03-31T05:14:21;7.00;99.90
19952;DHT22;10137;49.406;19.484;2023-03-31T05:16:49;7.10;99.90
19952;DHT22;10137;49.406;19.484;2023-03-31T05:19:18;7.00;99.90
19952;DHT22;10137;49.406;19.484;2023-03-31T05:21:48;7.00;99.90
19952;DHT22;10137;49.406;19.484;2023-03-31T05:24:16;7.00;99.90
19952;DHT22;10137;49.406;19.484;2023-03-31T05:26:46;7.10;99.90
19952;DHT22;10137;49.406;19.484;2023-03-31T05:29:18;7.20;99.90
19952;DHT22;10137;49.406;19.484;2023-03-31T05:31:46;7.30;99.90
19952;DHT22;10137;49.406;19.484;2023-03-31T05:34:16;7.50;99.90
19952;DHT22;10137;49.406;19.484;2023-03-31T05:36:44;7.60;99.90
19952;DHT22;10137;49.406;19.484;2023-03-31T05:39:14;7.60;99.90
19952;DHT22;10137;49.406;19.484;2023-03-31T05:41:42;7.60;99.90
19952;DHT22;10137;49.406;19.484;2023-03-31T05:44:12;7.70;99.90
19952;DHT22;10137;49.406;19.484;2023-03-31T05:46:40;7.70;99.90
19952;DHT22;10137;49.406;19.484;2023-03-31T05:49:08;7.70;99.90
19952;DHT22;10137;49.406;19.484;2023-03-31T05:51:37;7.70;99.90
19952;DHT22;10137;49.406;19.484;2023-03-31T05:54:05;7.70;99.90
19952;DHT22;10137;49.406;19.484;2023-03-31T05:56:33;7.70;99.90
19952;DHT22;10137;49.406;19.484;2023-03-31T05:59:01;7.80;99.90
19952;DHT22;10137;49.406;19.484;2023-03-31T06:01:31;8.10;99.90
19952;DHT22;10137;49.406;19.484;2023-03-31T06:04:02;8.40;99.90
19952;DHT22;10137;49.406;19.484;2023-03-31T06:06:30;8.70;99.90
19952;DHT22;10137;49.406;19.484;2023-03-31T06:09:00;9.00;99.90
19952;DHT22;10137;49.406;19.484;2023-03-31T06:11:28;9.20;99.90
19952;DHT22;10137;49.406;19.484;2023-03-31T06:13:57;9.40;99.90
19952;DHT22;10137;49.406;19.484;2023-03-31T06:16:25;9.60;99.90
19952;DHT22;10137;49.406;19.484;2023-03-31T06:18:56;9.80;99.90
19952;DHT22;10137;49.406;19.484;2023-03-31T06:21:24;10.00;99.90
19952;DHT22;10137;49.406;19.484;2023-03-31T06:23:53;10.10;99.90
19952;DHT22;10137;49.406;19.484;2023-03-31T06:26:24;10.40;99.90
19952;DHT22;10137;49.406;19.484;2023-03-31T06:28:52;10.40;99.90
19952;DHT22;10137;49.406;19.484;2023-03-31T06:31:20;10.60;99.90
19952;DHT22;10137;49.406;19.484;2023-03-31T06:33:48;10.70;99.90
19952;DHT22;10137;49.406;19.484;2023-03-31T06:36:18;10.80;99.90
19952;DHT22;10137;49.406;19.484;2023-03-31T06:38:47;11.10;99.90
19952;DHT22;10137;49.406;19.484;2023-03-31T06:41:17;11.40;99.90
19952;DHT22;10137;49.406;19.484;2023-03-31T06:43:46;11.50;99.90
19952;DHT22;10137;49.406;19.484;2023-03-31T06:46:14;11.60;99.90
19952;DHT22;10137;49.406;19.484;2023-03-31T06:48:43;11.80;99.90
19952;DHT22;10137;49.406;19.484;2023-03-31T06:51:16;11.90;99.90
19952;DHT22;10137;49.406;19.484;2023-03-31T06:53:46;11.90;99.90
19952;DHT22;10137;49.406;19.484;2023-03-31T06:56:14;11.70;99.90
19952;DHT22;10137;49.406;19.484;2023-03-31T07:01:49;11.90;99.90
19952;DHT22;10137;49.406;19.484;2023-03-31T07:04:16;11.90;99.90
19952;DHT22;10137;49.406;19.484;2023-03-31T07:06:44;12.00;99.90
19952;DHT22;10137;49.406;19.484;2023-03-31T07:09:14;12.20;99.90
19952;DHT22;10137;49.406;19.484;2023-03-31T07:11:41;12.20;99.90
19952;DHT22;10137;49.406;19.484;2023-03-31T07:14:08;12.20;99.90
19952;DHT22;10137;49.406;19.484;2023-03-31T07:16:36;12.10;99.90
19952;DHT22;10137;49.406;19.484;2023-03-31T07:19:03;12.10;99.90
19952;DHT22;10137;49.406;19.484;2023-03-31T07:21:32;12.10;99.90
19952;DHT22;10137;49.406;19.484;2023-03-31T07:23:59;12.20;99.90
19952;DHT22;10137;49.406;19.484;2023-03-31T07:26:29;11.90;99.90
19952;DHT22;10137;49.406;19.484;2023-03-31T07:28:58;11.80;99.90
19952;DHT22;10137;49.406;19.484;2023-03-31T07:31:26;11.80;99.90
19952;DHT22;10137;49.406;19.484;2023-03-31T07:33:54;11.80;99.90
19952;DHT22;10137;49.406;19.484;2023-03-31T07:36:22;11.50;99.90
19952;DHT22;10137;49.406;19.484;2023-03-31T07:38:49;11.40;99.90
19952;DHT22;10137;49.406;19.484;2023-03-31T07:41:20;11.20;99.90
19952;DHT22;10137;49.406;19.484;2023-03-31T07:43:50;10.90;99.90
19952;DHT22;10137;49.406;19.484;2023-03-31T07:46:20;10.80;99.90
19952;DHT22;10137;49.406;19.484;2023-03-31T07:48:49;10.70;99.90
19952;DHT22;10137;49.406;19.484;2023-03-31T07:51:21;10.50;99.90
19952;DHT22;10137;49.406;19.484;2023-03-31T07:53:49;10.40;99.90
19952;DHT22;10137;49.406;19.484;2023-03-31T07:56:18;10.30;99.90
19952;DHT22;10137;49.406;19.484;2023-03-31T07:58:47;10.20;99.90
19952;DHT22;10137;49.406;19.484;2023-03-31T08:01:19;10.10;99.90
19952;DHT22;10137;49.406;19.484;2023-03-31T08:03:51;10.10;99.90
19952;DHT22;10137;49.406;19.484;2023-03-31T08:06:22;10.00;99.90
19952;DHT22;10137;49.406;19.484;2023-03-31T08:08:50;10.00;99.90
19952;DHT22;10137;49.406;19.484;2023-03-31T08:11:19;10.00;99.90
19952;DHT22;10137;49.406;19.484;2023-03-31T08:13:48;10.00;99.90
19952;DHT22;10137;49.406;19.484;2023-03-31T08:16:17;10.10;99.90
19952;DHT22;10137;49.406;19.484;2023-03-31T08:18:46;10.00;99.90
19952;DHT22;10137;49.406;19.484;2023-03-31T08:21:13;10.00;99.90
19952;DHT22;10137;49.406;19.484;2023-03-31T08:23:42;10.10;99.90
19952;DHT22;10137;49.406;19.484;2023-03-31T08:26:12;10.20;99.90
19952;DHT22;10137;49.406;19.484;2023-03-31T08:28:39;10.40;99.90
19952;DHT22;10137;49.406;19.484;2023-03-31T08:31:08;10.90;99.90
19952;DHT22;10137;49.406;19.484;2023-03-31T08:33:38;11.30;99.90
19952;DHT22;10137;49.406;19.484;2023-03-31T08:36:08;11.80;99.90
19952;DHT22;10137;49.406;19.484;2023-03-31T08:38:37;12.50;99.90
19952;DHT22;10137;49.406;19.484;2023-03-31T08:41:21;13.00;99.90
19952;DHT22;10137;49.406;19.484;2023-03-31T08:43:55;13.40;99.90
19952;DHT22;10137;49.406;19.484;2023-03-31T08:46:27;13.90;99.90
19952;DHT22;10137;49.406;19.484;2023-03-31T08:48:58;14.20;99.90
19952;DHT22;10137;49.406;19.484;2023-03-31T08:51:31;14.30;99.90
19952;DHT22;10137;49.406;19.484;2023-03-31T08:54:02;14.00;99.90
19952;DHT22;10137;49.406;19.484;2023-03-31T08:56:35;13.60;99.90
19952;DHT22;10137;49.406;19.484;2023-03-31T08:59:05;13.20;99.90
19952;DHT22;10137;49.406;19.484;2023-03-31T09:01:41;13.10;99.90
19952;DHT22;10137;49.406;19.484;2023-03-31T09:04:25;12.90;99.90
19952;DHT22;10137;49.406;19.484;2023-03-31T09:06:57;12.80;99.90
19952;DHT22;10137;49.406;19.484;2023-03-31T09:09:38;12.70;99.90
19952;DHT22;10137;49.406;19.484;2023-03-31T09:12:16;12.70;99.90
19952;DHT22;10137;49.406;19.484;2023-03-31T09:14:50;12.60;99.90
19952;DHT22;10137;49.406;19.484;2023-03-31T09:17:24;12.60;99.90
19952;DHT22;10137;49.406;19.484;2023-03-31T09:19:56;12.70;99.90
19952;DHT22;10137;49.406;19.484;2023-03-31T09:22:26;12.70;99.90
19952;DHT22;10137;49.406;19.484;2023-03-31T09:24:58;12.70;99.90
19952;DHT22;10137;49.406;19.484;2023-03-31T09:27:29;12.70;99.90
19952;DHT22;10137;49.406;19.484;2023-03-31T09:30:03;13.50;99.90
19952;DHT22;10137;49.406;19.484;2023-03-31T09:32:37;13.90;99.90
19952;DHT22;10137;49.406;19.484;2023-03-31T09:35:16;14.40;99.90
19952;DHT22;10137;49.406;19.484;2023-03-31T09:37:48;14.70;99.90
19952;DHT22;10137;49.406;19.484;2023-03-31T09:40:19;15.10;99.90
19952;DHT22;10137;49.406;19.484;2023-03-31T09:42:50;15.40;99.90
19952;DHT22;10137;49.406;19.484;2023-03-31T09:45:20;15.30;99.90
19952;DHT22;10137;49.406;19.484;2023-03-31T09:47:52;15.50;99.90
19952;DHT22;10137;49.406;19.484;2023-03-31T09:50:25;15.40;99.10
19952;DHT22;10137;49.406;19.484;2023-03-31T09:52:56;15.20;99.00
19952;DHT22;10137;49.406;19.484;2023-03-31T09:55:27;15.10;99.30
19952;DHT22;10137;49.406;19.484;2023-03-31T09:58:00;14.50;99.30
19952;DHT22;10137;49.406;19.484;2023-03-31T10:00:28;14.10;99.90
19952;DHT22;10137;49.406;19.484;2023-03-31T10:03:00;14.10;99.90
19952;DHT22;10137;49.406;19.484;2023-03-31T10:05:36;13.90;99.90
19952;DHT22;10137;49.406;19.484;2023-03-31T10:08:25;14.10;99.90
19952;DHT22;10137;49.406;19.484;2023-03-31T10:10:55;14.50;99.90
19952;DHT22;10137;49.406;19.484;2023-03-31T10:13:25;14.40;99.90
19952;DHT22;10137;49.406;19.484;2023-03-31T10:16:02;14.20;99.90
19952;DHT22;10137;49.406;19.484;2023-03-31T10:18:34;13.80;99.90
19952;DHT22;10137;49.406;19.484;2023-03-31T10:21:06;13.70;99.90
19952;DHT22;10137;49.406;19.484;2023-03-31T10:23:35;13.60;99.90
19952;DHT22;10137;49.406;19.484;2023-03-31T10:26:03;13.30;99.90
19952;DHT22;10137;49.406;19.484;2023-03-31T10:28:33;13.20;99.90
19952;DHT22;10137;49.406;19.484;2023-03-31T10:31:03;13.20;99.90
19952;DHT22;10137;49.406;19.484;2023-03-31T10:33:33;13.20;99.90
19952;DHT22;10137;49.406;19.484;2023-03-31T10:36:14;13.30;99.90
19952;DHT22;10137;49.406;19.484;2023-03-31T10:38:46;13.20;99.90
19952;DHT22;10137;49.406;19.484;2023-03-31T10:41:17;13.00;99.90
19952;DHT22;10137;49.406;19.484;2023-03-31T10:43:50;13.10;99.90
19952;DHT22;10137;49.406;19.484;2023-03-31T10:46:19;13.00;99.90
19952;DHT22;10137;49.406;19.484;2023-03-31T10:48:50;12.90;99.90
19952;DHT22;10137;49.406;19.484;2023-03-31T10:51:24;12.90;99.90
19952;DHT22;10137;49.406;19.484;2023-03-31T10:53:54;12.90;99.90
19952;DHT22;10137;49.406;19.484;2023-03-31T10:56:40;12.80;99.90
19952;DHT22;10137;49.406;19.484;2023-03-31T10:59:18;12.70;99.90
19952;DHT22;10137;49.406;19.484;2023-03-31T11:02:02;12.70;99.90
19952;DHT22;10137;49.406;19.484;2023-03-31T11:04:58;12.70;99.90
19952;DHT22;10137;49.406;19.484;2023-03-31T11:07:44;12.80;99.90
19952;DHT22;10137;49.406;19.484;2023-03-31T11:10:28;12.80;99.90
19952;DHT22;10137;49.406;19.484;2023-03-31T11:13:06;12.80;99.90
19952;DHT22;10137;49.406;19.484;2023-03-31T11:15:41;12.90;99.90
19952;DHT22;10137;49.406;19.484;2023-03-31T11:18:26;12.80;99.90
19952;DHT22;10137;49.406;19.484;2023-03-31T11:21:09;12.90;99.90
19952;DHT22;10137;49.406;19.484;2023-03-31T11:23:53;12.90;99.90
19952;DHT22;10137;49.406;19.484;2023-03-31T11:26:35;12.90;99.90
19952;DHT22;10137;49.406;19.484;2023-03-31T11:29:24;12.90;99.90
19952;DHT22;10137;49.406;19.484;2023-03-31T11:32:01;12.80;99.90
19952;DHT22;10137;49.406;19.484;2023-03-31T11:34:54;12.80;99.90
19952;DHT22;10137;49.406;19.484;2023-03-31T11:37:47;12.90;99.90
19952;DHT22;10137;49.406;19.484;2023-03-31T11:40:36;13.00;99.90
19952;DHT22;10137;49.406;19.484;2023-03-31T11:43:09;13.20;99.90
19952;DHT22;10137;49.406;19.484;2023-03-31T11:45:43;13.30;99.90
19952;DHT22;10137;49.406;19.484;2023-03-31T11:48:17;13.20;99.90
19952;DHT22;10137;49.406;19.484;2023-03-31T11:50:50;13.20;99.90
19952;DHT22;10137;49.406;19.484;2023-03-31T11:53:21;13.30;99.90
19952;DHT22;10137;49.406;19.484;2023-03-31T11:55:54;13.30;99.90
19952;DHT22;10137;49.406;19.484;2023-03-31T11:58:32;13.30;99.90
19952;DHT22;10137;49.406;19.484;2023-03-31T12:01:08;13.10;99.90
19952;DHT22;10137;49.406;19.484;2023-03-31T12:03:42;13.00;99.90
19952;DHT22;10137;49.406;19.484;2023-03-31T12:06:16;13.10;99.90
19952;DHT22;10137;49.406;19.484;2023-03-31T12:08:53;13.00;99.90
19952;DHT22;10137;49.406;19.484;2023-03-31T12:11:30;12.90;99.90
19952;DHT22;10137;49.406;19.484;2023-03-31T12:14:09;12.90;99.90
19952;DHT22;10137;49.406;19.484;2023-03-31T12:16:42;13.00;99.90
19952;DHT22;10137;49.406;19.484;2023-03-31T12:19:18;13.10;99.90
19952;DHT22;10137;49.406;19.484;2023-03-31T12:21:50;13.20;99.90
19952;DHT22;10137;49.406;19.484;2023-03-31T12:24:20;13.20;99.90
19952;DHT22;10137;49.406;19.484;2023-03-31T12:27:00;13.30;99.90
19952;DHT22;10137;49.406;19.484;2023-03-31T12:29:32;13.20;99.90
19952;DHT22;10137;49.406;19.484;2023-03-31T12:32:02;13.20;99.90
19952;DHT22;10137;49.406;19.484;2023-03-31T12:34:31;13.40;99.90
19952;DHT22;10137;49.406;19.484;2023-03-31T12:37:23;13.50;99.90
19952;DHT22;10137;49.406;19.484;2023-03-31T12:40:06;13.50;99.90
19952;DHT22;10137;49.406;19.484;2023-03-31T12:42:57;13.60;99.90
19952;DHT22;10137;49.406;19.484;2023-03-31T12:45:27;13.70;99.90
19952;DHT22;10137;49.406;19.484;2023-03-31T12:51:29;13.90;99.90
19952;DHT22;10137;49.406;19.484;2023-03-31T12:54:13;14.10;99.90
19952;DHT22;10137;49.406;19.484;2023-03-31T12:57:04;14.00;99.90
19952;DHT22;10137;49.406;19.484;2023-03-31T12:59:44;13.90;99.90
19952;DHT22;10137;49.406;19.484;2023-03-31T13:02:29;13.80;99.90
19952;DHT22;10137;49.406;19.484;2023-03-31T13:05:46;13.50;99.90
19952;DHT22;10137;49.406;19.484;2023-03-31T13:08:53;13.20;99.90
19952;DHT22;10137;49.406;19.484;2023-03-31T13:11:35;13.10;99.90
19952;DHT22;10137;49.406;19.484;2023-03-31T13:14:10;12.90;99.90
19952;DHT22;10137;49.406;19.484;2023-03-31T13:16:41;12.70;99.90
19952;DHT22;10137;49.406;19.484;2023-03-31T13:19:12;12.60;99.90
19952;DHT22;10137;49.406;19.484;2023-03-31T13:21:53;12.50;99.90
19952;DHT22;10137;49.406;19.484;2023-03-31T13:24:23;12.30;99.90
19952;DHT22;10137;49.406;19.484;2023-03-31T13:26:51;12.10;99.90
19952;DHT22;10137;49.406;19.484;2023-03-31T13:29:23;12.20;99.90
19952;DHT22;10137;49.406;19.484;2023-03-31T13:32:18;12.20;99.90
19952;DHT22;10137;49.406;19.484;2023-03-31T13:34:53;12.10;99.90
19952;DHT22;10137;49.406;19.484;2023-03-31T13:43:52;12.20;99.90
19952;DHT22;10137;49.406;19.484;2023-03-31T13:46:41;12.10;99.90
19952;DHT22;10137;49.406;19.484;2023-03-31T13:49:49;12.10;99.90
19952;DHT22;10137;49.406;19.484;2023-03-31T13:52:30;12.00;99.90
19952;DHT22;10137;49.406;19.484;2023-03-31T13:55:27;12.00;99.90
19952;DHT22;10137;49.406;19.484;2023-03-31T13:58:19;11.90;99.90
19952;DHT22;10137;49.406;19.484;2023-03-31T14:04:07;12.10;99.90
19952;DHT22;10137;49.406;19.484;2023-03-31T14:06:46;12.10;99.90
19952;DHT22;10137;49.406;19.484;2023-03-31T14:09:22;12.20;99.90
19952;DHT22;10137;49.406;19.484;2023-03-31T14:11:51;12.30;99.90
19952;DHT22;10137;49.406;19.484;2023-03-31T14:14:20;12.30;99.90
19952;DHT22;10137;49.406;19.484;2023-03-31T14:16:52;12.40;99.90
19952;DHT22;10137;49.406;19.484;2023-03-31T14:19:43;12.40;99.90
19952;DHT22;10137;49.406;19.484;2023-03-31T14:22:22;12.40;99.90
19952;DHT22;10137;49.406;19.484;2023-03-31T14:25:00;12.40;99.90
19952;DHT22;10137;49.406;19.484;2023-03-31T14:27:46;12.50;99.90
19952;DHT22;10137;49.406;19.484;2023-03-31T14:30:22;12.50;99.90
19952;DHT22;10137;49.406;19.484;2023-03-31T14:33:03;12.60;99.90
19952;DHT22;10137;49.406;19.484;2023-03-31T14:35:35;12.50;99.90
19952;DHT22;10137;49.406;19.484;2023-03-31T14:38:12;12.50;99.90
19952;DHT22;10137;49.406;19.484;2023-03-31T14:40:44;12.50;99.90
19952;DHT22;10137;49.406;19.484;2023-03-31T14:43:18;12.50;99.90
19952;DHT22;10137;49.406;19.484;2023-03-31T14:45:56;12.50;99.90
19952;DHT22;10137;49.406;19.484;2023-03-31T14:48:26;12.50;99.90
19952;DHT22;10137;49.406;19.484;2023-03-31T14:51:00;12.50;99.90
19952;DHT22;10137;49.406;19.484;2023-03-31T14:53:29;12.40;99.90
19952;DHT22;10137;49.406;19.484;2023-03-31T14:56:01;12.40;99.90
19952;DHT22;10137;49.406;19.484;2023-03-31T14:58:32;12.40;99.90
19952;DHT22;10137;49.406;19.484;2023-03-31T15:01:02;12.30;99.90
19952;DHT22;10137;49.406;19.484;2023-03-31T15:03:34;12.30;99.90
19952;DHT22;10137;49.406;19.484;2023-03-31T15:06:04;12.30;99.90
19952;DHT22;10137;49.406;19.484;2023-03-31T15:08:35;12.30;99.90
19952;DHT22;10137;49.406;19.484;2023-03-31T15:11:07;12.10;99.90
19952;DHT22;10137;49.406;19.484;2023-03-31T15:13:38;12.20;99.90
19952;DHT22;10137;49.406;19.484;2023-03-31T15:16:31;12.10;99.90
19952;DHT22;10137;49.406;19.484;2023-03-31T15:19:06;12.00;99.90
19952;DHT22;10137;49.406;19.484;2023-03-31T15:21:37;12.00;99.90
19952;DHT22;10137;49.406;19.484;2023-03-31T15:24:10;11.90;99.90
19952;DHT22;10137;49.406;19.484;2023-03-31T15:26:41;11.90;99.90
19952;DHT22;10137;49.406;19.484;2023-03-31T15:29:13;12.00;99.90
19952;DHT22;10137;49.406;19.484;2023-03-31T15:31:43;11.90;99.90
19952;DHT22;10137;49.406;19.484;2023-03-31T15:34:21;11.80;99.90
19952;DHT22;10137;49.406;19.484;2023-03-31T15:36:52;11.70;99.90
19952;DHT22;10137;49.406;19.484;2023-03-31T15:39:23;11.70;99.90
19952;DHT22;10137;49.406;19.484;2023-03-31T15:41:56;11.80;99.90
19952;DHT22;10137;49.406;19.484;2023-03-31T15:44:34;11.70;99.90
19952;DHT22;10137;49.406;19.484;2023-03-31T15:47:10;11.80;99.90
19952;DHT22;10137;49.406;19.484;2023-03-31T15:49:46;11.80;99.90
19952;DHT22;10137;49.406;19.484;2023-03-31T15:52:21;11.90;99.90
19952;DHT22;10137;49.406;19.484;2023-03-31T15:54:51;11.90;99.90
19952;DHT22;10137;49.406;19.484;2023-03-31T15:57:19;11.80;99.90
19952;DHT22;10137;49.406;19.484;2023-03-31T15:59:47;11.90;99.90
19952;DHT22;10137;49.406;19.484;2023-03-31T16:02:18;11.80;99.90
19952;DHT22;10137;49.406;19.484;2023-03-31T16:04:47;11.90;99.90
19952;DHT22;10137;49.406;19.484;2023-03-31T16:07:18;11.70;99.90
19952;DHT22;10137;49.406;19.484;2023-03-31T16:09:52;11.70;99.90
19952;DHT22;10137;49.406;19.484;2023-03-31T16:12:22;11.70;99.90
19952;DHT22;10137;49.406;19.484;2023-03-31T16:14:54;11.60;99.90
19952;DHT22;10137;49.406;19.484;2023-03-31T16:17:26;11.60;99.90
19952;DHT22;10137;49.406;19.484;2023-03-31T16:19:58;11.60;99.90
19952;DHT22;10137;49.406;19.484;2023-03-31T16:22:33;11.50;99.90
19952;DHT22;10137;49.406;19.484;2023-03-31T16:25:08;11.40;99.90
19952;DHT22;10137;49.406;19.484;2023-03-31T16:27:41;11.40;99.90